Saint-Lieux-lès-Lavaur, France

1:58 AM CEST on October 26, 2014 (GMT +0200)
Giroussens | Change Station
CLOSE
Current Station
Personal Weather Station
Location: Giroussens, Tarn
Elevation: 604 ft
Nearby Weather Stations

Elev 604 ft 43.77 °N, 1.78 °E | Updated 140 days ago

Clear
Clear
55 °F
Feels Like 55 °F
N
2
Wind Variable Wind from NNE
Gusts mph

Today
High -- | Low -- °F
--% Chance of Precip.
Yesterday
High -- | Low -- °F
Precip. -- in
7:20 AM 5:52 PM
Waxing Crescent, 5% visible
Pressure 30.24 in
Visibility 6.2 miles
Clouds
Dew Point 46 °F
Humidity 70%
Rainfall 0.00 in
Snow Depth Not available.
UV Not available.
Pollen Not available.
Air Quality Not available.
Flu Activity Not available.
METAR LFCK 252330Z AUTO 00000KT 9999 NSC 12/10 Q1024

More Conditions Fewer Conditions

Pressure 30.24 in
Visibility 6.2 miles
Clouds
Dew Point 46 °F
Humidity 70%
Rainfall 0.00 in
Snow Depth Not available.
UV Not available.
Pollen Not available.
Air Quality Not available.
Flu Activity Not available.
METAR LFCK 252330Z AUTO 00000KT 9999 NSC 12/10 Q1024

More Conditions Fewer Conditions

10-Day Weather Forecast

Almanac

Astronomy

Oct. 26, 2014 Rise Set
Actual Time 7:20 AM CET 5:52 PM CET
Civil Twilight 6:51 AM CET 6:21 PM CET
Nautical Twilight 6:17 AM CET 6:55 PM CET
Astronomical Twilight 5:44 AM CET 7:28 PM CET
Moon 10:47 AM CET (10/26) 8:47 PM CET (10/26)
Length of Visible Light 11h 30m
Length of Day
10h 31m
Tomorrow will be 2m 46s shorter.
Waxing Crescent, 5% of the Moon is Illuminated
Oct 25
Waxing Crescent
Oct 30
First Quarter
Nov 6
Full
Nov 14
Last Quarter
Nov 22
New

Yesterday's Extremes

Country Highs Country Lows

Community

WunderPhotos

Upload Photos

1,765,034 photos uploaded!

Nearby

Snow Depth

Not available.

Earthquake Activity

City Distance Mag. Time & Date
No recent earthquake activity has been reported nearby.
Minimum magnitude displayed is 2.5.

Coastal Water Temperatures

Place Temperature
No Stations Reporting

Nearby Weather Stations